createdAt,value
2022-12-18T00:01:17.277Z,-12.60
2022-12-18T00:03:44.752Z,-12.60
2022-12-18T00:06:12.602Z,-12.60
2022-12-18T00:08:39.527Z,-12.60
2022-12-18T00:11:08.826Z,-12.60
2022-12-18T00:13:36.438Z,-12.50
2022-12-18T00:16:10.011Z,-12.60
2022-12-18T00:18:37.113Z,-12.60
2022-12-18T00:21:07.814Z,-12.60
2022-12-18T00:23:36.457Z,-12.70
2022-12-18T00:26:06.316Z,-12.70
2022-12-18T00:28:33.591Z,-12.70
2022-12-18T00:31:02.806Z,-12.70
2022-12-18T00:33:29.651Z,-12.80
2022-12-18T00:36:01.080Z,-12.80
2022-12-18T00:38:27.910Z,-12.80
2022-12-18T00:40:54.620Z,-12.80
2022-12-18T00:43:21.366Z,-12.80
2022-12-18T00:45:48.144Z,-12.80
2022-12-18T00:48:14.889Z,-12.90
2022-12-18T00:50:41.554Z,-12.90
2022-12-18T00:53:08.430Z,-12.90
2022-12-18T00:55:35.324Z,-12.90
2022-12-18T00:58:01.970Z,-13.00
2022-12-18T01:00:28.663Z,-13.00
2022-12-18T01:02:55.384Z,-13.00
2022-12-18T01:05:22.165Z,-13.00
2022-12-18T01:07:48.866Z,-13.00
2022-12-18T01:10:15.955Z,-13.00
2022-12-18T01:12:42.688Z,-13.00
2022-12-18T01:15:10.992Z,-13.00
2022-12-18T01:17:37.678Z,-12.90
2022-12-18T01:20:05.031Z,-12.80
2022-12-18T01:22:31.772Z,-12.80
2022-12-18T01:24:58.664Z,-12.80
2022-12-18T01:27:25.451Z,-12.80
2022-12-18T01:29:52.595Z,-12.80
2022-12-18T01:32:19.333Z,-12.90
2022-12-18T01:34:46.207Z,-12.90
2022-12-18T01:37:12.948Z,-12.90
2022-12-18T01:39:40.012Z,-12.90
2022-12-18T01:42:16.634Z,-12.90
2022-12-18T01:45:02.225Z,-13.00
2022-12-18T01:47:55.814Z,-12.90
2022-12-18T01:50:29.460Z,-12.90
2022-12-18T01:53:21.797Z,-12.80
2022-12-18T01:55:53.845Z,-12.80
2022-12-18T01:58:24.257Z,-12.80
2022-12-18T02:00:51.117Z,-12.80
2022-12-18T02:03:17.966Z,-12.80
2022-12-18T02:05:50.641Z,-12.80
2022-12-18T02:08:33.553Z,-12.80
2022-12-18T02:11:18.815Z,-12.70
2022-12-18T02:13:46.743Z,-12.70
2022-12-18T02:16:20.100Z,-12.70
2022-12-18T02:18:51.993Z,-12.70
2022-12-18T02:21:37.797Z,-12.70
2022-12-18T02:24:45.985Z,-12.70
2022-12-18T02:27:14.081Z,-12.70
2022-12-18T02:29:52.977Z,-12.60
2022-12-18T02:32:29.659Z,-12.60
2022-12-18T02:34:58.139Z,-12.60
2022-12-18T02:37:28.159Z,-12.50
2022-12-18T02:39:57.907Z,-12.50
2022-12-18T02:42:25.398Z,-12.50
2022-12-18T02:44:53.509Z,-12.60
2022-12-18T02:47:26.252Z,-12.60
2022-12-18T02:49:59.022Z,-12.60
2022-12-18T02:52:50.477Z,-12.60
2022-12-18T02:55:46.432Z,-12.70
2022-12-18T02:58:35.488Z,-12.70
2022-12-18T03:01:12.611Z,-12.70
2022-12-18T03:03:48.912Z,-12.70
2022-12-18T03:06:39.437Z,-12.70
2022-12-18T03:09:15.954Z,-12.70
2022-12-18T03:12:08.237Z,-12.80
2022-12-18T03:14:38.376Z,-12.80
2022-12-18T03:17:10.208Z,-12.80
2022-12-18T03:19:38.610Z,-12.90
2022-12-18T03:22:08.500Z,-12.90
2022-12-18T03:24:38.373Z,-12.90
2022-12-18T03:27:09.875Z,-12.40
2022-12-18T03:29:41.473Z,-13.00
2022-12-18T03:32:15.859Z,-13.00
2022-12-18T03:34:44.322Z,-13.00
2022-12-18T03:37:11.152Z,-13.10
2022-12-18T03:39:38.456Z,-13.10
2022-12-18T03:42:28.809Z,-13.10
2022-12-18T03:45:01.405Z,-13.00
2022-12-18T03:47:54.120Z,-13.00
2022-12-18T03:50:33.811Z,-12.90
2022-12-18T03:53:09.405Z,-12.90
2022-12-18T03:55:37.273Z,-12.90
2022-12-18T03:58:06.933Z,-12.90
2022-12-18T04:00:34.931Z,-13.00
2022-12-18T04:03:02.957Z,-13.00
2022-12-18T04:05:31.259Z,-13.00
2022-12-18T04:07:58.787Z,-13.00
2022-12-18T04:10:25.552Z,-13.00
2022-12-18T04:12:56.331Z,-12.90
2022-12-18T04:15:23.169Z,-12.90
2022-12-18T04:17:50.944Z,-12.90
2022-12-18T04:20:18.416Z,-12.90
2022-12-18T04:22:45.127Z,-12.90
2022-12-18T04:25:13.105Z,-12.90
2022-12-18T04:27:40.084Z,-12.90
2022-12-18T04:30:07.569Z,-12.80
2022-12-18T04:32:35.426Z,-12.60
2022-12-18T04:35:02.367Z,-12.30
2022-12-18T04:37:29.107Z,-12.10
2022-12-18T04:39:55.826Z,-11.90
2022-12-18T04:42:22.593Z,-11.70
2022-12-18T04:44:49.347Z,-11.60
2022-12-18T04:47:16.216Z,-11.50
2022-12-18T04:49:42.980Z,-11.40
2022-12-18T04:52:09.752Z,-11.30
2022-12-18T04:54:36.499Z,-11.20
2022-12-18T04:57:03.219Z,-11.10
2022-12-18T04:59:30.041Z,-10.90
2022-12-18T05:01:57.210Z,-10.80
2022-12-18T05:04:24.060Z,-10.70
2022-12-18T05:06:50.860Z,-10.50
2022-12-18T05:09:17.578Z,-10.40
2022-12-18T05:11:47.607Z,-10.30
2022-12-18T05:14:14.403Z,-10.50
2022-12-18T05:16:41.308Z,-10.20
2022-12-18T05:19:08.090Z,-10.20
2022-12-18T05:21:34.865Z,-10.10
2022-12-18T05:24:01.608Z,-10.00
2022-12-18T05:26:28.383Z,-10.00
2022-12-18T05:28:55.085Z,-10.00
2022-12-18T05:31:21.905Z,-9.90
2022-12-18T05:33:48.603Z,-9.90
2022-12-18T05:36:15.439Z,-9.90
2022-12-18T05:38:42.323Z,-9.80
2022-12-18T05:41:09.791Z,-9.80
2022-12-18T05:43:40.454Z,-9.70
2022-12-18T05:46:09.631Z,-9.70
2022-12-18T05:48:36.502Z,-9.60
2022-12-18T05:51:15.612Z,-9.50
2022-12-18T05:53:43.456Z,-9.50
2022-12-18T05:56:13.205Z,-9.40
2022-12-18T05:58:40.384Z,-9.40
2022-12-18T06:01:11.630Z,-9.30
2022-12-18T06:03:38.560Z,-9.20
2022-12-18T06:06:13.206Z,-9.20
2022-12-18T06:08:46.214Z,-9.20
2022-12-18T06:11:14.477Z,-9.10
2022-12-18T06:13:41.420Z,-9.00
2022-12-18T06:16:09.197Z,-9.00
2022-12-18T06:18:36.367Z,-9.00
2022-12-18T06:21:03.133Z,-8.90
2022-12-18T06:23:29.963Z,-8.80
2022-12-18T06:25:56.858Z,-8.80
2022-12-18T06:28:23.655Z,-8.70
2022-12-18T06:30:50.900Z,-8.70
2022-12-18T06:33:18.142Z,-8.70
2022-12-18T06:35:44.849Z,-8.60
2022-12-18T06:38:11.684Z,-8.50
2022-12-18T06:40:40.040Z,-8.60
2022-12-18T06:43:07.246Z,-8.50
2022-12-18T06:45:34.302Z,-8.50
2022-12-18T06:48:01.370Z,-8.40
2022-12-18T06:50:28.325Z,-8.40
2022-12-18T06:52:55.081Z,-8.40
2022-12-18T06:55:21.806Z,-8.40
2022-12-18T06:57:48.512Z,-8.30
2022-12-18T07:00:15.529Z,-8.30
2022-12-18T07:02:42.559Z,-8.20
2022-12-18T07:05:11.044Z,-8.20
2022-12-18T07:07:38.444Z,-8.20
2022-12-18T07:10:05.584Z,-8.10
2022-12-18T07:12:32.339Z,-8.10
2022-12-18T07:14:59.306Z,-8.00
2022-12-18T07:17:26.064Z,-8.00
2022-12-18T07:19:52.802Z,-7.90
2022-12-18T07:22:19.615Z,-7.90
2022-12-18T07:24:46.373Z,-7.90
2022-12-18T07:27:13.149Z,-7.80
2022-12-18T07:29:40.119Z,-7.80
2022-12-18T07:32:08.104Z,-7.80
2022-12-18T07:34:35.636Z,-7.70
2022-12-18T07:37:02.845Z,-7.70
2022-12-18T07:39:29.617Z,-7.70
2022-12-18T07:42:14.760Z,-7.60
2022-12-18T07:44:41.656Z,-7.50
2022-12-18T07:47:12.012Z,-7.50
2022-12-18T07:49:39.203Z,-7.40
2022-12-18T07:52:05.958Z,-7.40
2022-12-18T07:54:32.747Z,-7.40
2022-12-18T07:57:00.512Z,-7.40
2022-12-18T07:59:27.294Z,-7.30
2022-12-18T08:01:54.065Z,-7.30
2022-12-18T08:04:20.912Z,-7.20
2022-12-18T08:06:48.489Z,-7.20
2022-12-18T08:09:15.533Z,-7.20
2022-12-18T08:11:42.265Z,-7.10
2022-12-18T08:14:09.042Z,-7.10
2022-12-18T08:16:35.828Z,-7.10
2022-12-18T08:19:02.695Z,-7.00
2022-12-18T08:21:31.911Z,-7.00
2022-12-18T08:24:02.694Z,-6.90
2022-12-18T08:26:31.298Z,-6.90
2022-12-18T08:28:59.816Z,-6.80
2022-12-18T08:31:28.461Z,-6.80
2022-12-18T08:33:55.466Z,-6.80
2022-12-18T08:36:23.147Z,-6.70
2022-12-18T08:38:51.369Z,-6.70
2022-12-18T08:41:19.240Z,-6.70
2022-12-18T08:44:04.897Z,-6.60
2022-12-18T08:46:38.335Z,-6.60
2022-12-18T08:49:05.985Z,-6.60
2022-12-18T08:51:35.149Z,-6.60
2022-12-18T08:54:02.422Z,-6.50
2022-12-18T08:56:30.970Z,-6.50
2022-12-18T08:58:58.127Z,-6.40
2022-12-18T09:01:25.698Z,-6.40
2022-12-18T09:03:52.669Z,-6.40
2022-12-18T09:06:21.291Z,-6.40
2022-12-18T09:08:48.417Z,-6.50
2022-12-18T09:11:21.421Z,-6.50
2022-12-18T09:13:48.232Z,-6.40
2022-12-18T09:16:15.199Z,-6.40
2022-12-18T09:18:42.459Z,-6.30
2022-12-18T09:21:15.072Z,-6.10
2022-12-18T09:23:42.214Z,-6.00
2022-12-18T09:26:09.370Z,-6.00
2022-12-18T09:28:36.208Z,-6.00
2022-12-18T09:31:08.717Z,-5.80
2022-12-18T09:33:38.232Z,-5.80
2022-12-18T09:36:07.638Z,-5.70
2022-12-18T09:38:35.338Z,-5.60
2022-12-18T09:41:19.048Z,-5.50
2022-12-18T09:43:54.935Z,-5.40
2022-12-18T09:46:35.099Z,-5.30
2022-12-18T09:49:07.618Z,-5.20
2022-12-18T09:51:43.732Z,-5.20
2022-12-18T09:54:39.636Z,-5.00
2022-12-18T09:57:06.546Z,-4.90
2022-12-18T09:59:45.685Z,-4.80
2022-12-18T10:02:24.399Z,-4.70
2022-12-18T10:05:11.610Z,-4.50
2022-12-18T10:08:04.316Z,-4.40
2022-12-18T10:10:48.759Z,-4.20
2022-12-18T10:13:26.858Z,-4.10
2022-12-18T10:16:04.513Z,-3.80
2022-12-18T10:18:34.148Z,-3.70
2022-12-18T10:21:12.881Z,-3.60
2022-12-18T10:23:48.369Z,-3.50
2022-12-18T10:26:15.863Z,-3.40
2022-12-18T10:28:44.679Z,-3.30
2022-12-18T10:31:21.533Z,-3.30
2022-12-18T10:33:52.356Z,-3.30
2022-12-18T10:36:19.388Z,-3.30
2022-12-18T10:38:46.263Z,-3.20
2022-12-18T10:41:19.595Z,-3.20
2022-12-18T10:43:48.915Z,-3.10
2022-12-18T10:46:20.591Z,-2.60
2022-12-18T10:48:53.078Z,-3.00
2022-12-18T10:51:31.643Z,-2.70
2022-12-18T10:54:02.411Z,-2.50
2022-12-18T10:56:32.582Z,-2.40
2022-12-18T10:59:04.981Z,-2.20
2022-12-18T11:01:53.157Z,-2.10
2022-12-18T11:04:26.747Z,-2.10
2022-12-18T11:07:08.342Z,-2.00
2022-12-18T11:09:37.362Z,-2.10
2022-12-18T11:12:24.520Z,-2.00
2022-12-18T11:14:53.799Z,-1.70
2022-12-18T11:17:27.695Z,-1.60
2022-12-18T11:20:02.671Z,-1.40
2022-12-18T11:22:32.100Z,-1.20
2022-12-18T11:25:33.316Z,-1.00
2022-12-18T11:28:04.056Z,-1.00
2022-12-18T11:30:36.561Z,-0.90
2022-12-18T11:33:20.327Z,-0.80
2022-12-18T11:35:58.513Z,-0.40
2022-12-18T11:38:29.675Z,0.10
2022-12-18T11:41:15.707Z,0.60
2022-12-18T11:43:55.164Z,1.00
2022-12-18T11:46:31.801Z,1.20
2022-12-18T11:49:15.457Z,1.30
2022-12-18T11:51:49.369Z,1.20
2022-12-18T11:54:17.213Z,0.70
2022-12-18T11:56:49.202Z,0.30
2022-12-18T11:59:53.497Z,0.00
2022-12-18T12:02:43.753Z,-0.50
2022-12-18T12:05:19.880Z,-0.90
2022-12-18T12:07:59.646Z,-1.20
2022-12-18T12:10:57.648Z,-1.20
2022-12-18T12:13:45.373Z,-1.20
2022-12-18T12:16:38.572Z,-1.20
2022-12-18T12:19:30.943Z,-1.00
2022-12-18T12:22:39.003Z,-0.80
2022-12-18T12:25:24.265Z,-0.70
2022-12-18T12:28:38.025Z,-0.80
2022-12-18T12:31:22.200Z,-0.50
2022-12-18T12:34:07.343Z,-0.40
2022-12-18T12:36:53.076Z,-0.30
2022-12-18T12:39:27.779Z,-0.10
2022-12-18T12:42:13.546Z,-0.20
2022-12-18T12:44:56.539Z,-0.10
2022-12-18T12:47:29.403Z,-0.10
2022-12-18T12:49:59.015Z,-0.10
2022-12-18T12:52:31.629Z,0.00
2022-12-18T12:54:59.447Z,0.10
2022-12-18T12:57:36.150Z,0.00
2022-12-18T13:00:05.701Z,-0.10
2022-12-18T13:02:43.414Z,-0.20
2022-12-18T13:05:13.228Z,-0.40
2022-12-18T13:07:47.443Z,-0.40
2022-12-18T13:10:28.771Z,-0.50
2022-12-18T13:13:10.466Z,-0.50
2022-12-18T13:16:00.908Z,-0.70
2022-12-18T13:18:28.721Z,-0.70
2022-12-18T13:20:59.925Z,-0.70
2022-12-18T13:23:37.772Z,-0.80
2022-12-18T13:26:07.565Z,-0.70
2022-12-18T13:28:34.933Z,-0.70
2022-12-18T13:31:02.644Z,-0.80
2022-12-18T13:33:29.896Z,-0.90
2022-12-18T13:36:17.255Z,-1.00
2022-12-18T13:38:45.185Z,-1.00
2022-12-18T13:41:26.057Z,-1.10
2022-12-18T13:44:01.517Z,-1.20
2022-12-18T13:46:47.257Z,-1.30
2022-12-18T13:49:14.352Z,-1.50
2022-12-18T13:51:48.475Z,-1.60
2022-12-18T13:54:20.871Z,-1.60
2022-12-18T13:56:49.675Z,-1.80
2022-12-18T13:59:22.659Z,-1.80
2022-12-18T14:01:54.972Z,-1.80
2022-12-18T14:04:33.275Z,-1.90
2022-12-18T14:07:03.928Z,-1.90
2022-12-18T14:09:35.602Z,-2.00
2022-12-18T14:12:22.862Z,-2.00
2022-12-18T14:14:54.915Z,-2.10
2022-12-18T14:17:23.602Z,-2.10
2022-12-18T14:19:52.149Z,-2.20
2022-12-18T14:22:31.125Z,-2.20
2022-12-18T14:25:20.657Z,-2.20
2022-12-18T14:27:51.243Z,-2.30
2022-12-18T14:30:28.433Z,-2.20
2022-12-18T14:33:19.546Z,-2.30
2022-12-18T14:36:04.185Z,-2.30
2022-12-18T14:38:39.096Z,-2.40
2022-12-18T14:41:07.015Z,-2.40
2022-12-18T14:43:36.340Z,-2.50
2022-12-18T14:46:05.666Z,-2.60
2022-12-18T14:48:42.818Z,-2.50
2022-12-18T14:51:28.834Z,-2.70
2022-12-18T14:54:03.096Z,-2.80
2022-12-18T14:56:35.771Z,-2.90
2022-12-18T14:59:05.653Z,-2.90
2022-12-18T15:01:36.597Z,-3.00
2022-12-18T15:04:04.914Z,-2.90
2022-12-18T15:06:33.383Z,-3.00
2022-12-18T15:09:03.998Z,-3.00
2022-12-18T15:11:37.397Z,-3.20
2022-12-18T15:14:23.623Z,-3.30
2022-12-18T15:16:55.245Z,-3.40
2022-12-18T15:19:26.950Z,-3.40
2022-12-18T15:21:53.712Z,-3.40
2022-12-18T15:24:27.464Z,-3.50
2022-12-18T15:26:54.439Z,-3.60
2022-12-18T15:29:23.894Z,-3.70
2022-12-18T15:32:16.730Z,-3.90
2022-12-18T15:34:43.508Z,-4.00
2022-12-18T15:37:10.204Z,-4.10
2022-12-18T15:39:36.933Z,-4.10
2022-12-18T15:42:22.243Z,-4.20
2022-12-18T15:44:49.477Z,-4.20
2022-12-18T15:47:16.277Z,-4.30
2022-12-18T15:49:43.049Z,-4.40
2022-12-18T15:52:13.374Z,-4.50
2022-12-18T15:54:58.604Z,-4.20
2022-12-18T15:57:25.406Z,-4.60
2022-12-18T15:59:59.082Z,-4.70
2022-12-18T16:02:26.385Z,-4.80
2022-12-18T16:04:54.544Z,-4.80
2022-12-18T16:07:26.028Z,-4.80
2022-12-18T16:09:54.238Z,-4.90
2022-12-18T16:12:24.784Z,-4.90
2022-12-18T16:14:51.870Z,-5.00
2022-12-18T16:17:19.076Z,-5.00
2022-12-18T16:19:46.063Z,-5.10
2022-12-18T16:22:23.007Z,-5.10
2022-12-18T16:24:51.804Z,-5.10
2022-12-18T16:27:19.480Z,-5.10
2022-12-18T16:29:46.660Z,-5.10
2022-12-18T16:32:17.092Z,-5.10
2022-12-18T16:34:44.681Z,-5.10
2022-12-18T16:37:13.638Z,-5.10
2022-12-18T16:39:41.359Z,-5.20
2022-12-18T16:42:15.423Z,-5.20
2022-12-18T16:44:43.339Z,-5.20
2022-12-18T16:47:11.100Z,-5.20
2022-12-18T16:49:41.186Z,-5.30
2022-12-18T16:52:09.047Z,-5.30
2022-12-18T16:54:36.732Z,-5.30
2022-12-18T16:57:05.386Z,-5.30
2022-12-18T16:59:32.777Z,-5.20
2022-12-18T17:01:59.671Z,-5.20
2022-12-18T17:04:26.649Z,-5.20
2022-12-18T17:06:53.927Z,-5.10
2022-12-18T17:09:25.492Z,-5.10
2022-12-18T17:11:53.595Z,-5.10
2022-12-18T17:14:24.032Z,-5.10
2022-12-18T17:17:19.086Z,-5.10
2022-12-18T17:19:38.736Z,-5.10
2022-12-18T17:22:05.619Z,-5.10
2022-12-18T17:24:35.061Z,-5.10
2022-12-18T17:27:02.953Z,-5.10
2022-12-18T17:29:30.039Z,-5.10
2022-12-18T17:31:57.321Z,-5.10
2022-12-18T17:34:26.367Z,-5.10
2022-12-18T17:36:53.115Z,-5.10
2022-12-18T17:39:21.060Z,-5.20
2022-12-18T17:41:48.866Z,-5.20
2022-12-18T17:44:16.706Z,-5.20
2022-12-18T17:46:43.915Z,-5.20
2022-12-18T17:49:11.778Z,-5.10
2022-12-18T17:51:38.763Z,-5.10
2022-12-18T17:54:05.815Z,-5.00
2022-12-18T17:56:33.159Z,-5.00
2022-12-18T17:59:00.529Z,-4.90
2022-12-18T18:01:27.659Z,-4.80
2022-12-18T18:04:00.195Z,-4.80
2022-12-18T18:06:27.231Z,-4.70
2022-12-18T18:08:54.323Z,-4.60
2022-12-18T18:11:42.019Z,-4.50
2022-12-18T18:14:15.764Z,-4.40
2022-12-18T18:16:48.193Z,-4.40
2022-12-18T18:19:23.675Z,-4.40
2022-12-18T18:21:52.403Z,-4.30
2022-12-18T18:24:25.867Z,-4.30
2022-12-18T18:26:53.836Z,-4.30
2022-12-18T18:29:29.171Z,-4.20
2022-12-18T18:31:56.269Z,-4.20
2022-12-18T18:34:26.370Z,-4.10
2022-12-18T18:36:53.298Z,-4.10
2022-12-18T18:39:20.495Z,-4.10
2022-12-18T18:41:48.678Z,-4.10
2022-12-18T18:44:17.365Z,-4.00
2022-12-18T18:46:44.510Z,-4.00
2022-12-18T18:49:11.907Z,-4.00
2022-12-18T18:51:38.615Z,-4.00
2022-12-18T18:54:05.595Z,-4.00
2022-12-18T18:59:20.008Z,-4.00
2022-12-18T19:01:52.812Z,-4.00
2022-12-18T19:04:19.831Z,-3.90
2022-12-18T19:06:47.745Z,-4.00
2022-12-18T19:09:15.518Z,-4.00
2022-12-18T19:12:01.102Z,-4.00
2022-12-18T19:14:27.958Z,-4.10
2022-12-18T19:16:54.913Z,-4.10
2022-12-18T19:19:22.697Z,-4.00
2022-12-18T19:21:50.102Z,-4.00
2022-12-18T19:24:16.859Z,-4.00
2022-12-18T19:26:43.845Z,-4.00
2022-12-18T19:29:11.812Z,-4.10
2022-12-18T19:31:39.012Z,-4.10
2022-12-18T19:34:09.599Z,-4.00
2022-12-18T19:36:38.573Z,-4.00
2022-12-18T19:39:16.869Z,-4.00
2022-12-18T19:41:44.438Z,-4.00
2022-12-18T19:44:13.087Z,-4.00
2022-12-18T19:46:41.974Z,-4.00
2022-12-18T19:49:10.813Z,-4.00
2022-12-18T19:51:38.106Z,-4.10
2022-12-18T19:54:05.201Z,-4.10
2022-12-18T19:56:34.643Z,-4.00
2022-12-18T19:59:02.926Z,-4.00
2022-12-18T20:01:30.368Z,-4.00
2022-12-18T20:03:58.871Z,-4.00
2022-12-18T20:06:31.319Z,-4.00
2022-12-18T20:09:01.445Z,-4.00
2022-12-18T20:11:32.569Z,-4.00
2022-12-18T20:14:02.148Z,-4.00
2022-12-18T20:16:29.064Z,-4.00
2022-12-18T20:18:57.523Z,-4.00
2022-12-18T20:21:25.387Z,-4.00
2022-12-18T20:23:52.571Z,-3.90
2022-12-18T20:26:19.419Z,-4.00
2022-12-18T20:28:46.358Z,-3.90
2022-12-18T20:31:14.177Z,-4.00
2022-12-18T20:33:42.144Z,-3.90
2022-12-18T20:36:21.382Z,-3.90
2022-12-18T20:38:52.887Z,-3.90
2022-12-18T20:41:24.324Z,-3.90
2022-12-18T20:43:51.471Z,-3.90
2022-12-18T20:46:18.921Z,-3.80
2022-12-18T20:48:46.280Z,-3.90
2022-12-18T20:51:15.981Z,-3.80
2022-12-18T20:53:43.369Z,-3.80
2022-12-18T20:56:20.155Z,-3.80
2022-12-18T20:58:49.716Z,-3.80
2022-12-18T21:01:19.803Z,-3.90
2022-12-18T21:03:47.679Z,-3.90
2022-12-18T21:06:16.756Z,-3.90
2022-12-18T21:08:44.394Z,-3.90
2022-12-18T21:11:38.737Z,-3.90
2022-12-18T21:14:14.502Z,-3.90
2022-12-18T21:16:43.954Z,-3.80
2022-12-18T21:19:14.937Z,-3.80
2022-12-18T21:21:42.767Z,-3.80
2022-12-18T21:24:10.293Z,-3.90
2022-12-18T21:26:44.920Z,-3.90
2022-12-18T21:29:15.554Z,-3.90
2022-12-18T21:31:42.986Z,-3.90
2022-12-18T21:34:15.697Z,-4.00
2022-12-18T21:36:42.562Z,-4.00
2022-12-18T21:39:09.419Z,-4.00
2022-12-18T21:41:55.361Z,-4.00
2022-12-18T21:44:23.885Z,-4.00
2022-12-18T21:46:55.835Z,-4.00
2022-12-18T21:49:27.092Z,-4.00
2022-12-18T21:51:57.026Z,-3.90
2022-12-18T21:54:25.304Z,-4.00
2022-12-18T21:56:59.766Z,-3.90
2022-12-18T21:59:30.568Z,-3.90
2022-12-18T22:02:00.097Z,-3.90
2022-12-18T22:04:28.426Z,-3.90
2022-12-18T22:06:55.833Z,-3.80
2022-12-18T22:09:24.368Z,-3.80
2022-12-18T22:11:51.566Z,-3.80
2022-12-18T22:14:19.636Z,-3.80
2022-12-18T22:16:47.679Z,-3.80
2022-12-18T22:19:15.041Z,-3.80
2022-12-18T22:21:44.862Z,-3.70
2022-12-18T22:24:24.618Z,-3.80
2022-12-18T22:26:58.613Z,-3.80
2022-12-18T22:29:47.332Z,-3.80
2022-12-18T22:32:16.999Z,-3.80
2022-12-18T22:34:48.937Z,-3.70
2022-12-18T22:37:15.652Z,-3.70
2022-12-18T22:39:42.806Z,-3.70
2022-12-18T22:42:10.114Z,-3.70
2022-12-18T22:44:36.797Z,-3.70
2022-12-18T22:47:06.269Z,-3.70
2022-12-18T22:49:35.755Z,-3.60
2022-12-18T22:52:04.215Z,-3.60
2022-12-18T22:54:31.215Z,-3.60
2022-12-18T22:56:57.970Z,-3.60
2022-12-18T22:59:24.837Z,-3.60
2022-12-18T23:01:54.927Z,-3.60
2022-12-18T23:04:31.212Z,-3.60
2022-12-18T23:07:04.178Z,-3.60
2022-12-18T23:09:30.984Z,-3.60
2022-12-18T23:11:57.741Z,-3.60
2022-12-18T23:14:24.532Z,-3.50
2022-12-18T23:16:52.244Z,-3.50
2022-12-18T23:19:20.360Z,-3.50
2022-12-18T23:21:47.547Z,-3.50
2022-12-18T23:24:14.774Z,-3.50
2022-12-18T23:26:42.973Z,-3.50
2022-12-18T23:29:09.759Z,-3.60
2022-12-18T23:31:39.128Z,-3.50
2022-12-18T23:34:07.015Z,-3.50
2022-12-18T23:36:41.835Z,-3.50
2022-12-18T23:39:24.055Z,-3.50
2022-12-18T23:41:57.999Z,-3.40
2022-12-18T23:44:25.359Z,-3.40
2022-12-18T23:46:52.244Z,-3.40
2022-12-18T23:49:18.996Z,-3.40
2022-12-18T23:51:45.712Z,-3.40
2022-12-18T23:54:12.465Z,-3.40
2022-12-18T23:56:39.170Z,-3.40
2022-12-18T23:59:05.865Z,-3.40
